Time;durP1;ratioP1;P1;durP2;ratioP2;P2;SDS_P1;SDS_P2;PMS_P1;PMS_P2;Temp;Humidity;BMP_temperature;BMP_pressure;BME280_temperature;BME280_humidity;BME280_pressure;Samples;Min_cycle;Max_cycle;Signal;HPM_P1;HPM_P2
2022/06/19 00:01:41;;;;;;;11.18;6.83;;;;;;;15.12;71.75;99747.47;1747529;81;21019;-67
2022/06/19 00:04:09;;;;;;;10.68;6.53;;;;;;;15.10;71.70;99744.23;1759158;81;21044;-67
2022/06/19 00:06:36;;;;;;;9.30;6.53;;;;;;;15.11;71.54;99750.59;1758737;81;21119;-65
2022/06/19 00:09:03;;;;;;;14.87;6.95;;;;;;;15.06;71.48;99748.27;1759585;80;21105;-68
2022/06/19 00:11:33;;;;;;;9.05;6.72;;;;;;;15.06;71.53;99748.87;1758489;81;21141;-66
2022/06/19 00:14:01;;;;;;;10.70;6.65;;;;;;;15.04;71.47;99743.66;1759126;81;21000;-68
2022/06/19 00:16:29;;;;;;;11.73;7.05;;;;;;;15.02;71.41;99748.75;1757671;81;21516;-67
2022/06/19 00:18:57;;;;;;;15.23;6.40;;;;;;;15.00;71.52;99747.45;1760128;81;22121;-66
2022/06/19 00:21:24;;;;;;;11.93;7.00;;;;;;;15.00;71.63;99751.61;1760005;81;21764;-67
2022/06/19 00:23:50;;;;;;;10.98;7.03;;;;;;;14.98;71.63;99749.19;1744997;81;21568;-68
2022/06/19 00:26:17;;;;;;;10.35;6.33;;;;;;;14.97;71.83;99750.35;1759117;81;21016;-68
2022/06/19 00:28:48;;;;;;;10.50;6.25;;;;;;;14.99;71.72;99747.23;1759755;81;21091;-66
2022/06/19 00:31:17;;;;;;;13.40;6.97;;;;;;;14.98;71.67;99750.58;1758465;81;20992;-67
2022/06/19 00:33:45;;;;;;;10.98;5.70;;;;;;;14.96;71.83;99746.77;1753831;81;21051;-67
2022/06/19 00:36:12;;;;;;;9.20;5.95;;;;;;;14.95;71.76;99747.11;1727656;81;21557;-67
2022/06/19 00:38:39;;;;;;;11.10;7.53;;;;;;;14.94;71.81;99742.73;1759113;81;21075;-67
2022/06/19 00:41:05;;;;;;;8.43;6.37;;;;;;;14.95;71.76;99742.95;1757550;81;21011;-68
2022/06/19 00:43:32;;;;;;;9.85;5.83;;;;;;;14.95;71.75;99752.66;1758522;81;21040;-67
2022/06/19 00:46:06;;;;;;;9.95;6.20;;;;;;;14.92;71.77;99745.03;1692715;81;21547;-67
2022/06/19 00:48:37;;;;;;;16.32;6.30;;;;;;;14.92;71.97;99754.73;1754432;81;21169;-67
2022/06/19 00:51:05;;;;;;;14.95;6.40;;;;;;;14.89;72.12;99756.81;1752771;81;21552;-67
2022/06/19 00:53:45;;;;;;;11.68;6.50;;;;;;;14.87;72.12;99754.39;1758271;81;21047;-66
2022/06/19 00:56:16;;;;;;;21.85;6.55;;;;;;;14.85;71.98;99756.69;1755308;81;21016;-67
2022/06/19 00:58:43;;;;;;;14.10;5.97;;;;;;;14.85;71.97;99753.91;1751400;81;21495;-67
2022/06/19 01:01:20;;;;;;;10.70;5.72;;;;;;;14.83;71.70;99755.64;1759870;81;22165;-67
2022/06/19 01:04:07;;;;;;;11.45;6.30;;;;;;;14.80;71.80;99761.89;1755172;81;21004;-68
2022/06/19 01:06:35;;;;;;;11.80;6.12;;;;;;;14.79;72.04;99755.27;1748324;81;21114;-68
2022/06/19 01:09:06;;;;;;;12.53;6.25;;;;;;;14.81;72.07;99752.41;1727190;81;21505;-68
2022/06/19 01:11:35;;;;;;;13.53;6.00;;;;;;;14.81;72.05;99752.97;1759581;81;21024;-67
2022/06/19 01:14:03;;;;;;;11.70;6.25;;;;;;;14.81;72.21;99746.86;1751226;81;21066;-67
2022/06/19 01:16:30;;;;;;;8.25;5.47;;;;;;;14.81;72.06;99744.08;1759773;81;21008;-67
2022/06/19 01:18:59;;;;;;;7.85;5.47;;;;;;;14.80;71.90;99746.63;1732738;81;21557;-68
2022/06/19 01:21:48;;;;;;;12.40;5.15;;;;;;;14.79;71.82;99748.33;1755518;81;21489;-68
2022/06/19 01:24:43;;;;;;;9.45;5.20;;;;;;;14.76;71.68;99744.83;1756023;81;21086;-67
2022/06/19 01:28:45;;;;;;;9.20;4.67;;;;;;;14.72;71.58;99746.12;1758276;81;22125;-67
2022/06/19 01:29:41;;;;;;;9.18;4.97;;;;;;;14.69;71.55;99748.99;1755872;81;20994;-67
2022/06/19 01:32:08;;;;;;;6.70;4.62;;;;;;;14.66;71.50;99750.25;1759063;81;21506;-68
2022/06/19 01:34:38;;;;;;;7.40;4.83;;;;;;;14.63;71.76;99749.55;1758116;81;21044;-67
2022/06/19 01:37:16;;;;;;;8.58;4.28;;;;;;;14.60;72.03;99750.46;1721488;81;21060;-68
2022/06/19 01:39:47;;;;;;;11.85;4.47;;;;;;;14.60;72.33;99750.46;1757899;81;21242;-67
2022/06/19 01:42:16;;;;;;;7.28;4.47;;;;;;;14.62;72.30;99748.73;1756999;81;21426;-67
2022/06/19 01:44:44;;;;;;;8.85;4.40;;;;;;;14.64;72.11;99753.96;1750862;81;21031;-67
2022/06/19 01:47:12;;;;;;;8.23;4.28;;;;;;;14.62;72.12;99745.95;1759842;81;21008;-67
2022/06/19 01:49:40;;;;;;;8.73;5.03;;;;;;;14.62;72.18;99748.73;1759337;81;21068;-68
2022/06/19 01:52:08;;;;;;;7.33;5.17;;;;;;;14.60;72.23;99749.08;1752326;81;21222;-68
2022/06/19 01:54:39;;;;;;;9.43;4.65;;;;;;;14.63;72.26;99750.94;1759978;81;21076;-67
2022/06/19 01:57:07;;;;;;;6.53;4.58;;;;;;;14.65;72.33;99755.57;1749304;81;21043;-66
2022/06/19 01:59:34;;;;;;;6.25;4.28;;;;;;;14.66;72.28;99754.41;1758591;81;21047;-68
2022/06/19 02:02:04;;;;;;;7.33;3.85;;;;;;;14.67;72.42;99750.50;1757958;81;21012;-67
2022/06/19 02:04:31;;;;;;;5.97;4.10;;;;;;;14.69;72.61;99747.60;1759051;81;21123;-67
2022/06/19 02:07:02;;;;;;;9.70;4.87;;;;;;;14.74;72.64;99753.50;1757896;81;21051;-67
2022/06/19 02:09:31;;;;;;;13.58;4.55;;;;;;;14.76;72.75;99753.16;1756725;81;21056;-66
2022/06/19 02:11:59;;;;;;;5.55;4.10;;;;;;;14.79;73.00;99760.22;1758941;81;21528;-68
2022/06/19 02:14:26;;;;;;;7.95;4.22;;;;;;;14.86;73.29;99753.34;1730418;81;21551;-68
2022/06/19 02:16:55;;;;;;;5.15;4.03;;;;;;;14.92;73.55;99760.28;1759869;81;21056;-67
2022/06/19 02:19:21;;;;;;;8.73;3.62;;;;;;;14.97;73.86;99758.67;1758428;81;21036;-66
2022/06/19 02:21:55;;;;;;;5.72;3.45;;;;;;;15.02;74.21;99763.19;1759109;80;21070;-67
2022/06/19 02:24:26;;;;;;;7.35;3.58;;;;;;;15.07;74.65;99762.96;1759398;81;21063;-66
2022/06/19 02:26:55;;;;;;;5.12;3.90;;;;;;;15.13;75.00;99760.78;1759574;81;20973;-66
2022/06/19 02:29:22;;;;;;;7.67;3.90;;;;;;;15.19;75.30;99764.94;1758587;81;21080;-66
2022/06/19 02:31:51;;;;;;;5.58;3.83;;;;;;;15.25;75.64;99769.70;1758593;81;21004;-67
2022/06/19 02:34:26;;;;;;;9.58;3.65;;;;;;;15.27;75.91;99767.39;1759663;81;21048;-66
2022/06/19 02:36:58;;;;;;;7.85;3.80;;;;;;;15.28;76.02;99765.66;1753013;81;21516;-66
2022/06/19 02:40:05;;;;;;;7.17;4.08;;;;;;;15.30;76.01;99764.70;1758333;81;21047;-65
2022/06/19 02:42:39;;;;;;;5.55;3.85;;;;;;;15.31;75.67;99769.69;1758087;81;21661;-65
2022/06/19 02:45:13;;;;;;;4.30;3.90;;;;;;;15.29;75.36;99775.59;1750967;81;21500;-67
2022/06/19 02:47:42;;;;;;;7.67;3.27;;;;;;;15.28;75.20;99773.98;1734862;81;21079;-67
2022/06/19 02:50:13;;;;;;;5.50;3.72;;;;;;;15.27;75.10;99770.95;1758999;81;21027;-67
2022/06/19 02:52:39;;;;;;;8.43;3.87;;;;;;;15.30;74.88;99768.88;1733798;81;21070;-67
2022/06/19 02:55:09;;;;;;;4.78;3.42;;;;;;;15.35;74.78;99771.20;1759721;81;21875;-67
2022/06/19 02:57:36;;;;;;;4.72;3.67;;;;;;;15.41;74.63;99772.58;1753818;81;21031;-67
2022/06/19 03:00:05;;;;;;;5.08;3.33;;;;;;;15.44;74.37;99773.27;1760183;81;21032;-67
2022/06/19 03:02:34;;;;;;;8.05;3.62;;;;;;;15.47;74.32;99768.44;1759276;81;21020;-67
2022/06/19 03:05:04;;;;;;;10.85;4.15;;;;;;;15.50;73.92;99769.12;1756913;81;20988;-67
2022/06/19 03:07:31;;;;;;;11.28;3.70;;;;;;;15.54;73.52;99768.64;1752612;81;21115;-67
2022/06/19 03:09:58;;;;;;;10.72;4.10;;;;;;;15.58;73.34;99762.63;1759046;81;20992;-67
2022/06/19 03:12:24;;;;;;;10.78;3.55;;;;;;;15.64;73.27;99765.17;1759940;81;21030;-67
2022/06/19 03:14:51;;;;;;;18.87;3.72;;;;;;;15.68;72.95;99753.58;1759001;81;21088;-67
2022/06/19 03:17:20;;;;;;;22.10;4.58;;;;;;;15.73;72.79;99745.02;1758720;81;21594;-66
2022/06/19 03:19:47;;;;;;;15.03;5.25;;;;;;;15.78;72.66;99746.77;1759680;81;21120;-67
2022/06/19 03:22:13;;;;;;;26.40;6.12;;;;;;;15.82;72.59;99745.70;1759372;81;21004;-66
2022/06/19 03:24:41;;;;;;;15.50;4.28;;;;;;;15.89;72.57;99748.45;1733741;81;21083;-67
2022/06/19 03:27:09;;;;;;;23.57;5.90;;;;;;;15.91;72.54;99748.92;1759096;81;22151;-66
2022/06/19 03:29:36;;;;;;;26.07;5.65;;;;;;;15.95;72.54;99741.48;1732740;81;21058;-67
2022/06/19 03:32:05;;;;;;;17.42;3.95;;;;;;;16.01;72.49;99744.88;1758904;81;21726;-67
2022/06/19 03:34:34;;;;;;;14.05;4.17;;;;;;;16.06;72.19;99746.83;1751759;81;21018;-67
2022/06/19 03:37:01;;;;;;;12.98;4.25;;;;;;;16.15;72.17;99750.86;1758756;81;21567;-66
2022/06/19 03:39:27;;;;;;;5.28;3.05;;;;;;;16.25;72.17;99758.46;1759475;81;21027;-66
2022/06/19 03:41:53;;;;;;;6.33;3.30;;;;;;;16.34;72.38;99754.15;1757674;81;21106;-67
2022/06/19 03:44:20;;;;;;;7.70;3.10;;;;;;;16.43;72.56;99749.23;1758845;81;21344;-67
2022/06/19 03:46:46;;;;;;;4.78;3.33;;;;;;;16.54;72.12;99743.41;1759119;81;21543;-67
2022/06/19 03:49:13;;;;;;;5.58;3.22;;;;;;;16.65;71.76;99744.28;1759937;81;21121;-67
2022/06/19 03:51:40;;;;;;;7.60;3.40;;;;;;;16.75;71.29;99745.12;1757967;81;21023;-66
2022/06/19 03:54:11;;;;;;;7.65;3.55;;;;;;;16.86;71.16;99745.98;1759506;81;21055;-66
2022/06/19 03:56:39;;;;;;;5.03;3.40;;;;;;;16.95;71.10;99752.20;1757747;81;21044;-66
2022/06/19 03:59:07;;;;;;;5.78;3.17;;;;;;;17.03;70.86;99751.79;1757787;81;21123;-67
2022/06/19 04:01:36;;;;;;;5.95;3.30;;;;;;;17.11;70.55;99751.44;1744635;81;21048;-66
2022/06/19 04:04:04;;;;;;;7.33;3.05;;;;;;;17.20;70.16;99742.30;1741239;82;21060;-66
2022/06/19 04:06:35;;;;;;;4.70;2.87;;;;;;;17.27;69.47;99740.28;1736960;82;21060;-66
2022/06/19 04:09:06;;;;;;;6.03;3.30;;;;;;;17.35;69.22;99746.23;1740724;82;20985;-66
2022/06/19 04:11:36;;;;;;;7.28;3.42;;;;;;;17.44;69.03;99751.63;1724809;82;21049;-66
2022/06/19 04:14:03;;;;;;;4.70;2.92;;;;;;;17.51;68.75;99750.98;1728895;82;21087;-67
2022/06/19 04:16:32;;;;;;;5.78;3.47;;;;;;;17.56;68.20;99749.89;1700587;83;21043;-66
2022/06/19 04:19:02;;;;;;;4.10;2.95;;;;;;;17.61;68.02;99751.00;1725449;82;21036;-66
2022/06/19 04:21:30;;;;;;;6.28;3.60;;;;;;;17.66;67.40;99750.72;1693332;84;21585;-66
2022/06/19 04:24:00;;;;;;;6.00;3.02;;;;;;;17.71;66.91;99754.63;1669287;83;21535;-66
2022/06/19 04:26:28;;;;;;;5.90;2.77;;;;;;;17.78;66.96;99755.95;1677187;84;21067;-66
2022/06/19 04:28:57;;;;;;;20.27;4.50;;;;;;;17.86;66.91;99757.75;1704174;83;21031;-66
2022/06/19 04:31:25;;;;;;;4.72;3.30;;;;;;;17.91;66.77;99758.05;1690910;83;21051;-67
2022/06/19 04:33:52;;;;;;;4.33;3.20;;;;;;;17.99;66.57;99763.98;1698896;83;21460;-67
2022/06/19 04:36:20;;;;;;;8.83;4.03;;;;;;;18.07;66.70;99756.58;1693638;84;21020;-66
2022/06/19 04:38:49;;;;;;;7.03;3.50;;;;;;;18.14;66.53;99756.77;1697177;83;21553;-66
2022/06/19 04:41:29;;;;;;;8.05;4.60;;;;;;;18.23;66.33;99753.19;1701583;83;21031;-66
2022/06/19 04:43:58;;;;;;;6.53;3.85;;;;;;;18.31;66.01;99747.16;1716785;82;21016;-67
2022/06/19 04:46:24;;;;;;;13.72;4.60;;;;;;;18.41;65.91;99749.14;1702270;83;21130;-67
2022/06/19 04:48:51;;;;;;;9.53;4.65;;;;;;;18.48;65.93;99751.47;1678887;83;21067;-66
2022/06/19 04:51:18;;;;;;;11.22;4.55;;;;;;;18.57;66.18;99749.85;1701345;83;21060;-67
2022/06/19 04:53:46;;;;;;;9.50;5.17;;;;;;;18.66;66.40;99752.41;1725125;82;21529;-68
2022/06/19 04:56:14;;;;;;;13.32;5.62;;;;;;;18.73;66.40;99751.73;1672757;85;21029;-67
2022/06/19 04:58:42;;;;;;;16.02;5.62;;;;;;;18.85;65.78;99743.78;1686619;84;21133;-67
2022/06/19 05:01:13;;;;;;;9.55;5.42;;;;;;;18.93;66.13;99751.09;1691620;83;21116;-67
2022/06/19 05:03:40;;;;;;;11.83;5.53;;;;;;;19.05;65.77;99749.29;1683824;83;21020;-65
2022/06/19 05:06:07;;;;;;;11.50;5.25;;;;;;;19.17;66.17;99750.53;1695334;83;21765;-64
2022/06/19 05:08:35;;;;;;;10.38;5.20;;;;;;;19.29;66.15;99754.30;1692062;83;21135;-65
2022/06/19 05:11:02;;;;;;;14.70;4.83;;;;;;;19.39;66.39;99753.67;1681578;83;21110;-66
2022/06/19 05:13:30;;;;;;;10.40;4.80;;;;;;;19.50;65.81;99758.62;1697462;84;21417;-65
2022/06/19 05:16:13;;;;;;;8.55;4.47;;;;;;;19.60;64.81;99755.19;1688284;83;21107;-66
2022/06/19 05:18:39;;;;;;;7.53;4.83;;;;;;;19.72;64.68;99749.16;1664092;85;21510;-66
2022/06/19 05:21:06;;;;;;;8.35;4.42;;;;;;;19.82;64.37;99759.07;1674701;84;21064;-66
2022/06/19 05:23:35;;;;;;;14.10;5.12;;;;;;;19.92;64.16;99759.03;1675680;84;21145;-66
2022/06/19 05:26:07;;;;;;;9.28;4.05;;;;;;;20.02;64.06;99762.33;1692181;83;21047;-66
2022/06/19 05:28:36;;;;;;;7.63;3.83;;;;;;;20.10;63.79;99760.45;1721688;82;21063;-67
2022/06/19 05:31:03;;;;;;;8.33;4.50;;;;;;;20.17;64.04;99758.57;1672157;85;21202;-66
2022/06/19 05:33:30;;;;;;;7.37;3.30;;;;;;;20.27;63.55;99758.48;1718510;82;21005;-66
2022/06/19 05:35:58;;;;;;;9.48;3.42;;;;;;;20.39;63.45;99760.22;1667838;84;21075;-66
2022/06/19 05:38:24;;;;;;;5.25;2.80;;;;;;;20.53;63.32;99767.17;1696808;83;21051;-67
2022/06/19 05:40:52;;;;;;;6.40;2.87;;;;;;;20.65;62.35;99773.09;1678809;84;21100;-66
2022/06/19 05:43:20;;;;;;;3.92;2.35;;;;;;;20.76;62.14;99769.02;1687633;83;21610;-67
2022/06/19 05:45:57;;;;;;;4.58;2.42;;;;;;;20.84;61.34;99765.69;1663034;85;21041;-67
2022/06/19 05:48:25;;;;;;;4.25;2.90;;;;;;;20.90;61.29;99769.73;1717587;82;21500;-66
2022/06/19 05:51:18;;;;;;;4.30;2.30;;;;;;;20.98;61.19;99774.86;1722595;82;21060;-67
2022/06/19 05:53:51;;;;;;;3.37;2.02;;;;;;;21.04;61.48;99774.70;1719745;82;21031;-68
2022/06/19 05:56:17;;;;;;;2.87;2.30;;;;;;;21.12;61.25;99778.39;1692805;83;21071;-67
2022/06/19 05:58:49;;;;;;;1.87;1.60;;;;;;;21.20;61.15;99784.85;1696229;83;21047;-66
2022/06/19 06:01:17;;;;;;;2.30;1.55;;;;;;;21.27;59.97;99781.50;1721971;82;21195;-66
2022/06/19 06:03:44;;;;;;;2.50;1.60;;;;;;;21.35;60.05;99781.57;1724813;81;21047;-66
2022/06/19 06:06:18;;;;;;;1.67;1.32;;;;;;;21.44;60.18;99779.25;1726143;82;21031;-66
2022/06/19 06:08:45;;;;;;;2.15;1.42;;;;;;;21.50;58.95;99776.88;1681668;84;21073;-65
2022/06/19 06:11:13;;;;;;;2.10;1.55;;;;;;;21.57;56.99;99775.53;1681214;84;21060;-65
2022/06/19 06:13:40;;;;;;;1.52;1.30;;;;;;;21.65;57.17;99772.17;1687667;83;21114;-65
2022/06/19 06:16:07;;;;;;;4.65;1.80;;;;;;;21.73;57.86;99781.45;1687756;84;21028;-67
2022/06/19 06:18:34;;;;;;;3.25;1.35;;;;;;;21.79;56.90;99778.50;1661661;84;21046;-65
2022/06/19 06:21:05;;;;;;;1.30;0.93;;;;;;;21.87;57.11;99786.38;1684970;84;21609;-67
2022/06/19 06:23:31;;;;;;;1.87;1.32;;;;;;;21.94;56.75;99785.61;1688140;84;21048;-65
2022/06/19 06:26:08;;;;;;;2.67;1.50;;;;;;;22.00;56.21;99783.45;1686281;84;21166;-67
2022/06/19 06:28:39;;;;;;;2.45;1.35;;;;;;;22.08;56.40;99778.66;1682299;84;21063;-66
2022/06/19 06:31:07;;;;;;;2.62;1.42;;;;;;;22.13;56.32;99776.89;1681049;84;21079;-67
2022/06/19 06:33:35;;;;;;;5.95;1.25;;;;;;;22.20;54.48;99779.51;1681987;84;21122;-66
2022/06/19 06:36:02;;;;;;;1.12;1.02;;;;;;;22.27;54.86;99778.73;1682007;84;21163;-67
2022/06/19 06:38:30;;;;;;;1.35;0.95;;;;;;;22.33;55.10;99770.95;1684674;84;21804;-65
2022/06/19 06:40:58;;;;;;;1.80;1.12;;;;;;;22.42;54.86;99778.19;1679010;84;21631;-66
2022/06/19 06:43:24;;;;;;;2.02;1.20;;;;;;;22.48;54.73;99776.62;1683741;84;21012;-67
2022/06/19 06:45:51;;;;;;;2.20;1.37;;;;;;;22.54;54.05;99778.43;1679144;84;21063;-65
2022/06/19 06:48:19;;;;;;;1.57;1.20;;;;;;;22.60;53.82;99772.03;1686466;84;21064;-66
2022/06/19 06:50:47;;;;;;;2.08;1.10;;;;;;;22.67;54.41;99772.67;1679692;84;21152;-66
2022/06/19 06:53:17;;;;;;;1.60;1.10;;;;;;;22.73;54.01;99766.89;1683104;84;21086;-67
2022/06/19 06:55:46;;;;;;;1.62;1.00;;;;;;;22.80;53.29;99773.13;1682161;84;21100;-66
2022/06/19 06:58:14;;;;;;;1.70;0.98;;;;;;;22.89;52.96;99777.55;1683349;84;21115;-66
2022/06/19 07:00:42;;;;;;;2.10;1.30;;;;;;;22.97;53.62;99772.14;1684967;84;21530;-66
2022/06/19 07:03:10;;;;;;;2.60;1.12;;;;;;;23.04;52.13;99774.16;1684632;83;21805;-67
2022/06/19 07:05:38;;;;;;;1.37;1.27;;;;;;;23.10;52.22;99769.73;1635769;84;21098;-69
2022/06/19 07:08:09;;;;;;;1.42;1.02;;;;;;;23.16;52.35;99760.31;1701466;83;21631;-67
2022/06/19 07:10:36;;;;;;;3.70;1.52;;;;;;;23.23;52.47;99760.32;1685758;83;21004;-66
2022/06/19 07:13:04;;;;;;;1.75;1.30;;;;;;;23.29;52.79;99770.53;1693949;83;21119;-67
2022/06/19 07:15:32;;;;;;;4.55;1.40;;;;;;;23.37;53.07;99765.73;1683666;83;21576;-67
2022/06/19 07:17:59;;;;;;;4.25;1.45;;;;;;;23.42;51.76;99766.77;1691120;83;21060;-68
2022/06/19 07:20:27;;;;;;;3.92;1.10;;;;;;;23.44;50.46;99759.52;1692706;84;21013;-67
2022/06/19 07:22:57;;;;;;;1.40;0.80;;;;;;;23.48;49.92;99755.30;1675651;85;22255;-67
2022/06/19 07:25:27;;;;;;;4.67;1.02;;;;;;;23.54;49.13;99748.05;1729022;81;20989;-66
2022/06/19 07:27:53;;;;;;;1.15;1.00;;;;;;;23.61;49.30;99741.61;1726647;81;21326;-69
2022/06/19 07:30:22;;;;;;;1.85;1.05;;;;;;;23.69;50.03;99732.58;1722262;82;21107;-68
2022/06/19 07:32:52;;;;;;;4.65;1.50;;;;;;;23.76;50.53;99733.97;1723262;82;21001;-66
2022/06/19 07:35:19;;;;;;;1.17;0.90;;;;;;;23.83;50.60;99728.30;1725672;82;21048;-66
2022/06/19 07:37:46;;;;;;;1.27;0.82;;;;;;;23.92;50.13;99728.47;1725678;82;21059;-67
2022/06/19 07:40:16;;;;;;;1.32;1.02;;;;;;;24.00;50.56;99723.05;1727492;82;21544;-67
2022/06/19 07:42:43;;;;;;;3.10;0.90;;;;;;;24.09;49.69;99720.39;1727205;82;21024;-67
2022/06/19 07:45:13;;;;;;;3.27;0.98;;;;;;;24.18;49.11;99722.98;1672777;85;21245;-67
2022/06/19 07:50:26;;;;;;;2.65;0.85;;;;;;;24.35;46.93;99717.67;1704240;83;20993;-66
2022/06/19 07:52:54;;;;;;;3.67;0.82;;;;;;;24.42;47.33;99715.41;1686994;83;21787;-66
2022/06/19 07:55:24;;;;;;;1.40;0.82;;;;;;;24.43;46.03;99707.97;1697111;83;21104;-68
2022/06/19 07:57:50;;;;;;;2.10;1.22;;;;;;;24.41;46.21;99711.01;1730247;81;21390;-68
2022/06/19 08:00:22;;;;;;;1.32;1.00;;;;;;;24.42;45.58;99705.56;1686637;85;21008;-68
2022/06/19 08:02:50;;;;;;;3.15;1.00;;;;;;;24.49;46.56;99705.53;1730516;81;21119;-68
2022/06/19 08:05:20;;;;;;;1.67;0.90;;;;;;;24.55;47.08;99712.91;1712835;83;21038;-68
2022/06/19 08:07:52;;;;;;;2.37;0.85;;;;;;;24.63;46.71;99709.46;1716835;82;21047;-67
2022/06/19 08:10:30;;;;;;;1.95;1.20;;;;;;;24.68;44.35;99704.17;1672754;84;21016;-68
2022/06/19 08:12:57;;;;;;;2.80;1.00;;;;;;;24.73;44.30;99707.78;1710804;82;21512;-68
2022/06/19 08:15:27;;;;;;;3.50;0.75;;;;;;;24.78;44.61;99702.52;1704185;82;21038;-63
2022/06/19 08:17:59;;;;;;;1.75;1.00;;;;;;;24.82;44.35;99703.09;1734225;81;21147;-68
2022/06/19 08:20:27;;;;;;;1.67;1.10;;;;;;;24.85;44.77;99709.30;1737664;81;21067;-67
2022/06/19 08:22:56;;;;;;;4.47;1.30;;;;;;;24.85;44.03;99699.44;1735295;81;21126;-65
2022/06/19 08:25:23;;;;;;;1.55;0.80;;;;;;;24.89;43.48;99698.81;1705909;83;21123;-66
2022/06/19 08:27:53;;;;;;;1.20;0.93;;;;;;;24.94;43.81;99701.22;1717802;83;21079;-66
2022/06/19 08:30:24;;;;;;;1.30;0.78;;;;;;;25.04;45.03;99698.89;1741501;81;21248;-66
2022/06/19 08:32:53;;;;;;;1.32;1.07;;;;;;;25.14;43.32;99705.67;1735191;81;21085;-67
2022/06/19 08:35:20;;;;;;;1.67;1.10;;;;;;;25.15;43.26;99704.45;1708964;82;21051;-68
2022/06/19 08:37:51;;;;;;;1.27;1.15;;;;;;;25.23;44.73;99702.98;1716643;82;21019;-67
2022/06/19 08:40:41;;;;;;;3.22;1.52;;;;;;;25.33;43.68;99694.22;1694555;84;21071;-68
2022/06/19 08:43:47;;;;;;;2.65;1.10;;;;;;;25.43;42.14;99700.36;1708417;82;21113;-67
2022/06/19 08:46:41;;;;;;;4.08;1.10;;;;;;;25.47;41.96;99695.47;1699069;84;21039;-67
2022/06/19 08:49:42;;;;;;;2.40;1.30;;;;;;;25.53;42.52;99690.99;1691027;84;21011;-67
2022/06/19 08:52:43;;;;;;;2.27;1.20;;;;;;;25.58;42.14;99685.49;1685800;84;21743;-68
2022/06/19 08:55:54;;;;;;;1.95;1.00;;;;;;;25.66;43.30;99687.64;1687170;84;21066;-67
2022/06/19 08:58:54;;;;;;;1.40;1.07;;;;;;;25.74;43.70;99688.37;1716400;82;21171;-67
2022/06/19 09:01:35;;;;;;;2.00;1.60;;;;;;;25.83;42.78;99689.28;1702089;84;21047;-67
2022/06/19 09:07:43;;;;;;;7.05;0.82;;;;;;;25.95;42.29;99686.52;1712241;83;21096;-67
2022/06/19 09:10:22;;;;;;;1.67;0.90;;;;;;;25.99;41.42;99688.06;1715228;82;21043;-66
2022/06/19 09:13:29;;;;;;;6.60;1.05;;;;;;;26.05;42.32;99677.72;1682126;83;21032;-68
2022/06/19 09:16:25;;;;;;;4.05;1.05;;;;;;;26.09;41.43;99678.45;1714443;83;21068;-65
2022/06/19 09:19:19;;;;;;;3.25;0.90;;;;;;;26.15;42.58;99678.79;1751261;81;21039;-67
2022/06/19 09:21:56;;;;;;;;;;;;;;;26.18;42.93;99672.29;1710538;83;21028;-67
2022/06/19 09:24:57;;;;;;;5.15;0.60;;;;;;;26.23;41.16;99668.39;1694595;83;20232;-68
2022/06/19 09:27:35;;;;;;;1.95;0.90;;;;;;;26.29;40.71;99665.09;1702481;84;21708;-66
2022/06/19 09:30:10;;;;;;;1.00;0.80;;;;;;;26.37;41.28;99662.38;1759710;81;21008;-69
2022/06/19 09:32:50;;;;;;;2.72;1.00;;;;;;;26.42;41.19;99657.66;1730589;81;21372;-69
2022/06/19 09:35:27;;;;;;;1.17;0.65;;;;;;;26.46;41.45;99654.79;1757840;81;21028;-67
2022/06/19 09:38:11;;;;;;;3.83;1.20;;;;;;;26.48;40.72;99660.19;1750503;81;21019;-69
2022/06/19 09:40:43;;;;;;;2.77;0.70;;;;;;;26.51;41.03;99655.72;1757644;81;21331;-68
2022/06/19 09:43:24;;;;;;;2.50;0.93;;;;;;;26.56;40.32;99657.25;1760227;81;21497;-67
2022/06/19 09:46:14;;;;;;;1.72;0.80;;;;;;;26.60;40.57;99654.55;1755479;81;21052;-67
2022/06/19 09:49:00;;;;;;;0.95;0.70;;;;;;;26.62;38.73;99651.30;1710922;81;21071;-67
2022/06/19 09:51:33;;;;;;;1.67;1.15;;;;;;;26.65;37.60;99644.78;1756514;81;21456;-68
2022/06/19 09:54:20;;;;;;;1.45;0.80;;;;;;;26.69;37.80;99646.95;1758381;81;21117;-67
2022/06/19 09:57:15;;;;;;;0.85;0.60;;;;;;;26.76;39.00;99647.44;1755889;81;20993;-68
2022/06/19 09:59:51;;;;;;;1.35;0.85;;;;;;;26.84;37.89;99645.28;1758880;81;21657;-69
2022/06/19 10:02:58;;;;;;;2.55;0.90;;;;;;;26.91;37.47;99642.95;1756554;81;21028;-69
2022/06/19 10:05:36;;;;;;;1.12;1.02;;;;;;;26.98;39.75;99647.07;1731794;82;21044;-67
2022/06/19 10:08:22;;;;;;;5.08;1.22;;;;;;;27.07;39.13;99645.91;1738422;82;21225;-67
2022/06/19 10:11:05;;;;;;;2.05;0.80;;;;;;;27.14;37.80;99648.44;1734528;82;21016;-69
2022/06/19 10:13:55;;;;;;;1.00;0.88;;;;;;;27.17;38.05;99657.47;1732835;82;21039;-66
2022/06/19 10:16:52;;;;;;;1.32;0.75;;;;;;;27.23;38.83;99659.97;1735444;82;21032;-66
2022/06/19 10:19:43;;;;;;;1.05;0.80;;;;;;;27.27;38.43;99652.84;1735054;82;21036;-67
2022/06/19 10:22:33;;;;;;;1.60;0.82;;;;;;;27.33;39.45;99660.38;1732284;82;21121;-66
2022/06/19 10:25:45;;;;;;;10.00;1.35;;;;;;;27.41;38.32;99659.66;1727612;82;21036;-67
2022/06/19 10:28:59;;;;;;;5.15;1.07;;;;;;;27.48;39.51;99664.98;1728929;82;21106;-65
2022/06/19 10:31:51;;;;;;;5.80;1.15;;;;;;;27.50;39.01;99657.64;1727476;82;21024;-67
2022/06/19 10:34:38;;;;;;;2.52;0.82;;;;;;;27.51;37.52;99657.03;1681367;82;21103;-66
2022/06/19 10:37:36;;;;;;;2.58;0.88;;;;;;;27.53;37.60;99651.74;1678595;82;21918;-67
2022/06/19 10:40:46;;;;;;;2.92;0.70;;;;;;;27.56;37.70;99650.27;1733301;82;21012;-67
2022/06/19 10:43:47;;;;;;;0.80;0.68;;;;;;;27.62;37.03;99649.12;1714925;82;21072;-67
2022/06/19 10:46:16;;;;;;;2.42;1.22;;;;;;;27.65;38.82;99643.22;1733031;82;20989;-66
2022/06/19 10:49:33;;;;;;;1.80;0.93;;;;;;;27.67;38.17;99653.49;1721540;81;21067;-72
2022/06/19 10:52:09;;;;;;;1.30;1.02;;;;;;;27.70;37.78;99649.81;1718058;81;21567;-70
2022/06/19 10:54:50;;;;;;;11.10;1.30;;;;;;;27.79;37.23;99652.06;1722949;82;21028;-68
2022/06/19 10:57:40;;;;;;;1.80;1.07;;;;;;;27.88;38.65;99653.67;1706159;81;21076;-68
2022/06/19 11:00:12;;;;;;;1.85;0.90;;;;;;;27.97;36.96;99656.53;1736177;81;21031;-68
2022/06/19 11:05:48;;;;;;;8.38;1.07;;;;;;;28.11;37.21;99638.44;1750324;81;21083;-69
2022/06/19 11:08:16;;;;;;;3.25;0.80;;;;;;;28.20;37.28;99632.95;1717184;82;21011;-69
2022/06/19 11:10:45;;;;;;;3.95;1.20;;;;;;;28.27;37.21;99630.56;1753503;81;21039;-70
2022/06/19 11:13:12;;;;;;;1.80;0.80;;;;;;;28.29;37.78;99630.32;1705762;81;21080;-69
2022/06/19 11:16:01;;;;;;;2.87;0.90;;;;;;;28.33;37.60;99628.83;1726226;81;21060;-68
2022/06/19 11:18:34;;;;;;;5.22;1.27;;;;;;;28.36;38.11;99625.75;1740873;81;21065;-70
2022/06/19 11:21:08;;;;;;;4.00;1.20;;;;;;;28.41;37.97;99626.03;1742665;81;21142;-70
2022/06/19 11:23:51;;;;;;;2.52;1.00;;;;;;;28.48;38.76;99624.25;1727396;81;21031;-70
2022/06/19 11:26:29;;;;;;;2.02;0.90;;;;;;;28.51;37.50;99616.28;1737065;81;20988;-70
2022/06/19 11:29:00;;;;;;;2.55;1.12;;;;;;;28.57;38.84;99606.64;1744069;81;21561;-69
2022/06/19 11:31:39;;;;;;;5.62;1.10;;;;;;;28.64;38.37;99602.22;1749973;81;21726;-70
2022/06/19 11:37:30;;;;;;;4.90;1.02;;;;;;;28.65;36.03;99610.88;1736216;81;21004;-71
2022/06/19 11:40:07;;;;;;;3.50;0.90;;;;;;;28.64;37.20;99604.41;1743667;81;21068;-71
2022/06/19 11:42:51;;;;;;;1.37;0.80;;;;;;;28.72;37.32;99611.31;1748541;81;20980;-69
2022/06/19 11:45:31;;;;;;;4.25;1.10;;;;;;;28.77;36.83;99605.11;1756239;81;21959;-70
2022/06/19 11:48:14;;;;;;;;;;;;;;;28.82;36.24;99600.33;1750867;81;21049;-70
2022/06/19 11:50:51;;;;;;;3.58;1.35;;;;;;;28.84;36.23;99596.44;1729014;81;20166;-70
2022/06/19 11:53:33;;;;;;;2.02;1.10;;;;;;;28.79;36.31;99596.97;1728114;81;21060;-75
2022/06/19 11:56:31;;;;;;;5.90;1.30;;;;;;;28.79;35.74;99604.05;1734375;81;21642;-70
2022/06/19 11:59:03;;;;;;;4.90;1.00;;;;;;;28.77;36.11;99595.20;1739005;81;22467;-68
2022/06/19 12:01:39;;;;;;;2.90;1.00;;;;;;;28.83;37.32;99594.82;1700178;82;21468;-70
2022/06/19 12:04:27;;;;;;;4.53;1.00;;;;;;;28.90;37.07;99594.64;1674369;84;21037;-70
2022/06/19 12:07:05;;;;;;;4.03;1.00;;;;;;;28.99;36.94;99596.06;1726390;81;21204;-69
2022/06/19 12:09:50;;;;;;;3.15;1.35;;;;;;;29.02;37.51;99590.30;1735743;81;21587;-70
2022/06/19 12:12:20;;;;;;;2.25;1.10;;;;;;;29.06;37.43;99595.88;1735561;81;21167;-71
2022/06/19 12:15:18;;;;;;;3.87;1.00;;;;;;;29.09;36.67;99592.79;1736563;81;21504;-71